Relevés horaires Florennes (Belgique)


Relevés horaires à Florennes - Vendredi 19 Juill. 2019
Heure UTC1 Température [°C] Vent [km/h] Hum. [%] Pres.4 [hPa] Visi. [Km] Nébu. [octa] Préc.5 [mm] Cond.
2m. Res. Ros. Dir.2 Vit. Moy. Raf.3
21:00 19.3 19.3 13.3 SE 3.7 -- 5.6 68 1013.3(-0.4/3h) 20 -- -- --
20:00 20.3 20.3 13.3 SE 3.7 -- 3.7 64 1013.5(-0.3/3h) 20 -- -- --
19:00 21.3 21.3 13.5 NNO 1.9 -- 5.6 61 1013.5(-0.2/3h) 20 -- -- --
18:00 22.1 22.1 13.0 S 3.7 -- 18.5 56 1013.6(-0.4/3h) 20 -- -- --
17:00 22.6 22.6 12.6 SSO 7.4 -- 13.0 53 1013.7(-0.5/3h) 20 -- -- --
16:00 23.3 23.3 12.8 SO 7.4 -- 14.8 52 1013.6(-0.9/3h) 20 -- -- --
15:00 22.8 22.8 11.8 SSO 7.4 -- 18.5 50 1014(-0.7/3h) 20 -- -- --
14:00 22.5 22.5 11.6 SO 9.3 -- 18.5 50 1014.2(-0.5/3h) 20 -- -- --
13:00 21.1 21.1 11.5 SO 9.3 -- 16.7 54 1014.7(-0.3/3h) 20 6/8 -- --
12:00 20.4 20.4 10.8 SSO 9.3 -- 14.8 54 1015(-0.2/3h) 20 6/8 -- --
11:00 21.0 21.0 11.5 SSO 7.4 -- 14.8 55 1015(-0.1/3h) 20 6/8 -- --
10:00 19.8 19.8 11.5 SSO 7.4 -- 14.8 59 1015.2(0.2/3h) 20 6/8 -- --
10:00 19.8 19.8 11.5 SSO 7.4 -- 14.8 59 1015.2(0.2/3h) 20 6/8 -- --
10:00 19.8 19.8 11.5 SSO 7.4 -- 14.8 59 1015.2(0.2/3h) 20 6/8 -- --
10:00 19.8 19.8 11.5 SSO 7.4 -- 14.8 59 1015.2(0.2/3h) 20 6/8 -- --
09:00 18.9 18.9 12.0 SO 7.4 -- 13.0 64 1015.3(0.7/3h) 20 6/8 -- --
09:00 18.9 18.9 12.0 SO 7.4 -- 13.0 64 1015.3(0.7/3h) 20 6/8 -- --
08:00 17.5 17.5 11.9 SO 7.4 -- 11.1 70 1015.6(1.1/3h) 20 6/8 -- --
08:00 17.5 17.5 11.9 SO 7.4 -- 11.1 70 1015.6(1.1/3h) 20 6/8 -- --
07:00 16.1 16.1 12.4 SSO 5.6 -- 9.3 79 1015.5(0.9/3h) 20 6/8 -- --
07:00 16.1 16.1 12.4 SSO 5.6 -- 9.3 79 1015.5(0.9/3h) 20 6/8 -- --
06:00 14.8 14.8 12.4 SSO 5.6 -- 11.1 86 1015.1(0.5/3h) 20 6/8 0.4/12h
--
06:00 14.8 14.8 12.4 SSO 5.6 -- 11.1 86 1015.1(0.5/3h) 20 6/8 0.4/12h
--
05:00 14.3 14.3 11.8 SSO 3.7 -- 7.4 85 1014.7(0.2/3h) 20 7/8 -- --

1 Coordinated Universal Time. Actuellement il est 23:00 locale et 21:00 UTC.

2 Le vent souffle depuis la direction indiquée vers la direction oposée.

3 Les rafales max. sont disponible 40 min après l'heure du relevé.

4 Pour les stations d'altitude (plus de 600m) le géopotentiel du niveau le plus proche de la pression obligatoire est indiqué.

5 Les stations disposant d'un diffuseur peuvent indiquer "trace". Cela signifie que des précipitations ont touchés le sol mais que la quantité est inférieure à 0.1 mm.

Récapitulatif de la journée
Température [°C] Vent [km/h] Ensoleillement4 [h] Precipitations totale5 [mm] Pression [Hpa]
Min1 Max.2 Moy.3 Max. Min Max.
14.2 23.5 0 18.5 0 h 0 min 0 1013.3 1015.6

1 Température minimale relevée entre 18:00 UTC la veille et 18:00 UTC le jour donné.

2 Température maximale relevée entre 06:00 UTC le jour donné et 06:00 UTC le lendemain.

3 Vent moyen de la journée basé sur les relevés horaires.

4 Ensoleillement en heures relevé entre 06:00 UTC la veille et 06:00 UTC le jour donné.

5 Précipitations totales tombées entre 06:00 UTC la jour donné et 06:00 UTC le lendemain.

Graphiques horaires